DLH861 ENGM-EDDF
Flight info
| Callsign | DLH861 |
|---|---|
| Flight time | 1h 36m |
| Altitude | 35000 |
| Route | VIPPA DCT RAXLU DCT RIMET/N0453F310 T157 KOKEB/N0395F230 T157 KERAX KERAX5A |
| Aircraft | A21N/M-SDE2E3FGHIRWXY/LB1 |
Departure
| Time | 2026-05-04 12:49 |
|---|---|
| Airport | Oslo-Gardermoen International Airport (ENGM) |
Arrival
| Time | 2026-05-04 14:26 |
|---|---|
| Airport | Frankfurt Main Airport (EDDF) |
| Time | Latitude | Longitude | Altitude | Speed | Heading |
|---|---|---|---|---|---|
| 2026-05-04 12:16 | 60.19582 | 11.09264 | 688 ft | 0 kts | 196° |
| 2026-05-04 12:39 | 60.19592 | 11.09270 | 688 ft | 2 kts | 196° |
| 2026-05-04 12:39 | 60.19606 | 11.09279 | 688 ft | 2 kts | 197° |
| 2026-05-04 12:39 | 60.19620 | 11.09287 | 688 ft | 2 kts | 197° |
| 2026-05-04 12:39 | 60.19635 | 11.09296 | 688 ft | 2 kts | 196° |
| 2026-05-04 12:40 | 60.19645 | 11.09302 | 688 ft | 0 kts | 197° |
| 2026-05-04 12:42 | 60.19643 | 11.09300 | 688 ft | 0 kts | 212° |
| 2026-05-04 12:42 | 60.19643 | 11.09290 | 688 ft | 1 kts | 276° |
| 2026-05-04 12:43 | 60.19658 | 11.09265 | 688 ft | 5 kts | 321° |
| 2026-05-04 12:43 | 60.19694 | 11.09199 | 688 ft | 8 kts | 309° |
| 2026-05-04 12:43 | 60.19723 | 11.09067 | 688 ft | 10 kts | 287° |
| 2026-05-04 12:43 | 60.19746 | 11.08906 | 688 ft | 11 kts | 286° |
| 2026-05-04 12:44 | 60.19773 | 11.08744 | 688 ft | 11 kts | 301° |
| 2026-05-04 12:44 | 60.19855 | 11.08730 | 688 ft | 14 kts | 16° |
| 2026-05-04 12:44 | 60.19968 | 11.08795 | 688 ft | 18 kts | 15° |
| 2026-05-04 12:44 | 60.20109 | 11.08876 | 688 ft | 21 kts | 15° |
| 2026-05-04 12:45 | 60.20263 | 11.08968 | 686 ft | 22 kts | 16° |
| 2026-05-04 12:45 | 60.20419 | 11.09056 | 686 ft | 21 kts | 16° |
| 2026-05-04 12:45 | 60.20565 | 11.09141 | 684 ft | 20 kts | 15° |
| 2026-05-04 12:45 | 60.20708 | 11.09224 | 684 ft | 21 kts | 15° |
| 2026-05-04 12:46 | 60.20861 | 11.09314 | 684 ft | 22 kts | 17° |
| 2026-05-04 12:46 | 60.21018 | 11.09405 | 686 ft | 22 kts | 16° |
| 2026-05-04 12:46 | 60.21169 | 11.09492 | 688 ft | 21 kts | 16° |
| 2026-05-04 12:46 | 60.21313 | 11.09576 | 692 ft | 19 kts | 15° |
| 2026-05-04 12:47 | 60.21436 | 11.09647 | 694 ft | 15 kts | 16° |
| 2026-05-04 12:47 | 60.21534 | 11.09602 | 693 ft | 15 kts | 303° |
| 2026-05-04 12:47 | 60.21555 | 11.09480 | 691 ft | 3 kts | 286° |
| 2026-05-04 12:47 | 60.21563 | 11.09424 | 691 ft | 5 kts | 286° |
| 2026-05-04 12:48 | 60.21581 | 11.09290 | 689 ft | 10 kts | 286° |
| 2026-05-04 12:48 | 60.21579 | 11.09155 | 689 ft | 10 kts | 218° |
| 2026-05-04 12:48 | 60.21492 | 11.09097 | 689 ft | 19 kts | 196° |
| 2026-05-04 12:48 | 60.21111 | 11.08876 | 687 ft | 92 kts | 196° |
| 2026-05-04 12:49 | 60.20242 | 11.08373 | 687 ft | 154 kts | 196° |
| 2026-05-04 12:49 | 60.19021 | 11.07647 | 815 ft | 190 kts | 199° |
| 2026-05-04 12:49 | 60.17743 | 11.06859 | 1459 ft | 189 kts | 200° |
| 2026-05-04 12:49 | 60.16502 | 11.05903 | 2121 ft | 188 kts | 215° |
| 2026-05-04 12:50 | 60.15647 | 11.03855 | 2493 ft | 198 kts | 246° |
| 2026-05-04 12:50 | 60.15140 | 11.01122 | 2814 ft | 217 kts | 252° |
| 2026-05-04 12:50 | 60.14609 | 10.98069 | 3169 ft | 237 kts | 251° |
| 2026-05-04 12:50 | 60.13980 | 10.94832 | 3615 ft | 253 kts | 249° |
| 2026-05-04 12:51 | 60.13251 | 10.91491 | 4345 ft | 258 kts | 248° |
| 2026-05-04 12:51 | 60.12484 | 10.88107 | 5105 ft | 261 kts | 247° |
| 2026-05-04 12:51 | 60.11719 | 10.84774 | 6011 ft | 257 kts | 247° |
| 2026-05-04 12:51 | 60.10955 | 10.81430 | 6847 ft | 256 kts | 247° |
| 2026-05-04 12:52 | 60.10184 | 10.78122 | 7648 ft | 255 kts | 247° |
| 2026-05-04 12:52 | 60.09427 | 10.74830 | 8388 ft | 256 kts | 245° |
| 2026-05-04 12:52 | 60.08661 | 10.71520 | 9124 ft | 256 kts | 244° |
| 2026-05-04 12:52 | 60.07898 | 10.68223 | 9808 ft | 258 kts | 244° |
| 2026-05-04 12:53 | 60.07126 | 10.64913 | 10303 ft | 266 kts | 243° |
| 2026-05-04 12:53 | 60.06312 | 10.61419 | 10580 ft | 281 kts | 243° |
| 2026-05-04 12:53 | 60.05235 | 10.57943 | 10835 ft | 295 kts | 227° |
| 2026-05-04 12:53 | 60.03539 | 10.55360 | 11103 ft | 310 kts | 207° |
| 2026-05-04 12:54 | 60.01400 | 10.54112 | 11610 ft | 319 kts | 193° |
| 2026-05-04 12:54 | 59.99216 | 10.53368 | 12319 ft | 318 kts | 192° |
| 2026-05-04 12:54 | 59.96971 | 10.52625 | 12932 ft | 319 kts | 192° |
| 2026-05-04 12:54 | 59.94752 | 10.51889 | 13482 ft | 322 kts | 193° |
| 2026-05-04 12:55 | 59.92508 | 10.51142 | 14032 ft | 325 kts | 193° |
| 2026-05-04 12:55 | 59.90210 | 10.50376 | 14580 ft | 327 kts | 193° |
| 2026-05-04 12:55 | 59.87921 | 10.49613 | 15119 ft | 329 kts | 193° |
| 2026-05-04 12:55 | 59.85636 | 10.48852 | 15641 ft | 332 kts | 193° |
| 2026-05-04 12:56 | 59.83274 | 10.48064 | 16164 ft | 334 kts | 193° |
| 2026-05-04 12:56 | 59.80920 | 10.47281 | 16670 ft | 336 kts | 193° |
| 2026-05-04 12:56 | 59.78574 | 10.46501 | 17160 ft | 339 kts | 193° |
| 2026-05-04 12:56 | 59.76199 | 10.45711 | 17639 ft | 341 kts | 193° |
| 2026-05-04 12:57 | 59.73843 | 10.44930 | 18099 ft | 343 kts | 193° |
| 2026-05-04 12:57 | 59.71438 | 10.44132 | 18553 ft | 345 kts | 193° |
| 2026-05-04 12:57 | 59.69028 | 10.43334 | 18993 ft | 347 kts | 193° |
| 2026-05-04 12:57 | 59.66574 | 10.42522 | 19428 ft | 349 kts | 193° |
| 2026-05-04 12:58 | 59.64127 | 10.41714 | 19849 ft | 351 kts | 193° |
| 2026-05-04 12:58 | 59.61668 | 10.40905 | 20259 ft | 353 kts | 193° |
| 2026-05-04 12:58 | 59.59184 | 10.40089 | 20661 ft | 355 kts | 193° |
| 2026-05-04 12:58 | 59.56713 | 10.39266 | 21049 ft | 357 kts | 193° |
| 2026-05-04 12:59 | 59.54208 | 10.38421 | 21432 ft | 359 kts | 193° |
| 2026-05-04 12:59 | 59.51723 | 10.37582 | 21800 ft | 361 kts | 193° |
| 2026-05-04 12:59 | 59.49214 | 10.36734 | 22161 ft | 363 kts | 193° |
| 2026-05-04 12:59 | 59.46645 | 10.35825 | 22417 ft | 369 kts | 191° |
| 2026-05-04 13:00 | 59.44036 | 10.34933 | 22586 ft | 378 kts | 189° |
| 2026-05-04 13:00 | 59.41353 | 10.34034 | 22749 ft | 386 kts | 189° |
| 2026-05-04 13:00 | 59.38620 | 10.33122 | 22906 ft | 394 kts | 189° |
| 2026-05-04 13:00 | 59.35833 | 10.32192 | 23058 ft | 402 kts | 189° |
| 2026-05-04 13:01 | 59.32994 | 10.31243 | 23209 ft | 409 kts | 189° |
| 2026-05-04 13:01 | 59.30080 | 10.30271 | 23441 ft | 414 kts | 189° |
| 2026-05-04 13:01 | 59.27166 | 10.29299 | 23766 ft | 416 kts | 189° |
| 2026-05-04 13:01 | 59.24271 | 10.28336 | 24092 ft | 418 kts | 189° |
| 2026-05-04 13:02 | 59.21324 | 10.27358 | 24406 ft | 420 kts | 189° |
| 2026-05-04 13:02 | 59.18433 | 10.26421 | 24702 ft | 422 kts | 188° |
| 2026-05-04 13:02 | 59.15521 | 10.25730 | 24992 ft | 423 kts | 185° |
| 2026-05-04 13:02 | 59.12549 | 10.25315 | 25280 ft | 425 kts | 184° |
| 2026-05-04 13:03 | 59.09583 | 10.24920 | 25563 ft | 427 kts | 184° |
| 2026-05-04 13:03 | 59.06628 | 10.24516 | 25832 ft | 429 kts | 184° |
| 2026-05-04 13:03 | 59.03592 | 10.24101 | 26101 ft | 431 kts | 184° |
| 2026-05-04 13:03 | 59.00615 | 10.23696 | 26359 ft | 432 kts | 184° |
| 2026-05-04 13:04 | 58.97601 | 10.23289 | 26614 ft | 434 kts | 184° |
| 2026-05-04 13:04 | 58.94573 | 10.22938 | 26861 ft | 436 kts | 182° |
| 2026-05-04 13:04 | 58.91515 | 10.22878 | 27104 ft | 437 kts | 179° |
| 2026-05-04 13:04 | 58.88426 | 10.22935 | 27348 ft | 439 kts | 179° |
| 2026-05-04 13:05 | 58.85360 | 10.22973 | 27582 ft | 441 kts | 179° |
| 2026-05-04 13:05 | 58.82272 | 10.23007 | 27815 ft | 442 kts | 179° |
| 2026-05-04 13:05 | 58.79208 | 10.23041 | 28042 ft | 444 kts | 179° |
| 2026-05-04 13:05 | 58.76084 | 10.23076 | 28270 ft | 445 kts | 179° |
| 2026-05-04 13:06 | 58.72996 | 10.23111 | 28490 ft | 447 kts | 179° |
| 2026-05-04 13:06 | 58.69856 | 10.23147 | 28712 ft | 448 kts | 179° |
| 2026-05-04 13:06 | 58.66719 | 10.23184 | 28929 ft | 450 kts | 179° |
| 2026-05-04 13:06 | 58.63533 | 10.23221 | 29160 ft | 451 kts | 179° |
| 2026-05-04 13:07 | 58.60390 | 10.23258 | 29455 ft | 450 kts | 179° |
| 2026-05-04 13:07 | 58.57230 | 10.23294 | 29768 ft | 449 kts | 179° |
| 2026-05-04 13:07 | 58.54077 | 10.23331 | 30069 ft | 448 kts | 179° |
| 2026-05-04 13:07 | 58.50977 | 10.23367 | 30355 ft | 448 kts | 179° |
| 2026-05-04 13:08 | 58.47843 | 10.23404 | 30641 ft | 447 kts | 179° |
| 2026-05-04 13:08 | 58.44717 | 10.23440 | 30925 ft | 447 kts | 179° |
| 2026-05-04 13:08 | 58.41589 | 10.23476 | 31207 ft | 446 kts | 179° |
| 2026-05-04 13:08 | 58.38498 | 10.23512 | 31484 ft | 446 kts | 179° |
| 2026-05-04 13:09 | 58.35373 | 10.23548 | 31761 ft | 445 kts | 179° |
| 2026-05-04 13:09 | 58.32288 | 10.23583 | 32031 ft | 444 kts | 179° |
| 2026-05-04 13:09 | 58.29171 | 10.23619 | 32300 ft | 444 kts | 179° |
| 2026-05-04 13:09 | 58.26041 | 10.23655 | 32567 ft | 443 kts | 179° |
| 2026-05-04 13:10 | 58.22892 | 10.23691 | 32831 ft | 443 kts | 179° |
| 2026-05-04 13:10 | 58.19794 | 10.23726 | 33088 ft | 442 kts | 179° |
| 2026-05-04 13:10 | 58.16681 | 10.23762 | 33324 ft | 442 kts | 179° |
| 2026-05-04 13:10 | 58.13536 | 10.23798 | 33528 ft | 443 kts | 179° |
| 2026-05-04 13:11 | 58.10406 | 10.23833 | 33716 ft | 444 kts | 179° |
| 2026-05-04 13:11 | 58.07300 | 10.23868 | 33902 ft | 445 kts | 179° |
| 2026-05-04 13:11 | 58.04199 | 10.23904 | 34087 ft | 446 kts | 179° |
| 2026-05-04 13:11 | 58.01063 | 10.23939 | 34271 ft | 446 kts | 179° |
| 2026-05-04 13:12 | 57.97897 | 10.23975 | 34452 ft | 447 kts | 179° |
| 2026-05-04 13:12 | 57.94761 | 10.24010 | 34627 ft | 448 kts | 179° |
| 2026-05-04 13:12 | 57.91615 | 10.24046 | 34799 ft | 448 kts | 179° |
| 2026-05-04 13:12 | 57.88480 | 10.24081 | 34957 ft | 449 kts | 179° |
| 2026-05-04 13:13 | 57.85318 | 10.24116 | 34977 ft | 450 kts | 179° |
| 2026-05-04 13:13 | 57.79008 | 10.24187 | 34982 ft | 450 kts | 179° |
| 2026-05-04 13:14 | 57.72715 | 10.24257 | 34983 ft | 450 kts | 179° |
| 2026-05-04 13:14 | 57.66408 | 10.24327 | 34984 ft | 450 kts | 179° |
| 2026-05-04 13:15 | 57.60098 | 10.24396 | 34984 ft | 450 kts | 179° |
| 2026-05-04 13:15 | 57.53819 | 10.24466 | 34984 ft | 450 kts | 179° |
| 2026-05-04 13:16 | 57.47485 | 10.24535 | 34984 ft | 450 kts | 179° |
| 2026-05-04 13:16 | 57.41218 | 10.24604 | 34984 ft | 450 kts | 179° |
| 2026-05-04 13:17 | 57.34938 | 10.24673 | 34984 ft | 450 kts | 179° |
| 2026-05-04 13:17 | 57.28665 | 10.24741 | 34984 ft | 450 kts | 179° |
| 2026-05-04 13:18 | 57.22386 | 10.24809 | 34984 ft | 450 kts | 179° |
| 2026-05-04 13:18 | 57.16085 | 10.24877 | 34984 ft | 450 kts | 179° |
| 2026-05-04 13:19 | 57.09793 | 10.24945 | 34984 ft | 450 kts | 179° |
| 2026-05-04 13:19 | 57.03489 | 10.25012 | 34984 ft | 450 kts | 179° |
| 2026-05-04 13:20 | 56.97210 | 10.25079 | 34984 ft | 450 kts | 179° |
| 2026-05-04 13:20 | 56.90892 | 10.25147 | 34984 ft | 450 kts | 179° |
| 2026-05-04 13:21 | 56.84657 | 10.25213 | 34984 ft | 450 kts | 179° |
| 2026-05-04 13:21 | 56.78348 | 10.25279 | 34984 ft | 450 kts | 179° |
| 2026-05-04 13:22 | 56.72041 | 10.25346 | 34984 ft | 450 kts | 179° |
| 2026-05-04 13:22 | 56.65755 | 10.25412 | 34984 ft | 450 kts | 179° |
| 2026-05-04 13:23 | 56.59472 | 10.25478 | 34984 ft | 450 kts | 179° |
| 2026-05-04 13:23 | 56.53191 | 10.25543 | 34984 ft | 450 kts | 179° |
| 2026-05-04 13:24 | 56.46912 | 10.25609 | 34984 ft | 450 kts | 179° |
| 2026-05-04 13:24 | 56.40602 | 10.25674 | 34984 ft | 450 kts | 179° |
| 2026-05-04 13:25 | 56.31169 | 10.25771 | 34984 ft | 450 kts | 179° |
| 2026-05-04 13:25 | 56.24834 | 10.25836 | 34984 ft | 450 kts | 179° |
| 2026-05-04 13:26 | 56.18574 | 10.25900 | 34984 ft | 450 kts | 179° |
| 2026-05-04 13:26 | 56.12272 | 10.25964 | 34984 ft | 450 kts | 179° |
| 2026-05-04 13:27 | 56.05978 | 10.26028 | 34984 ft | 450 kts | 179° |
| 2026-05-04 13:27 | 55.99680 | 10.26092 | 34984 ft | 450 kts | 179° |
| 2026-05-04 13:28 | 55.93370 | 10.26156 | 34984 ft | 450 kts | 179° |
| 2026-05-04 13:28 | 55.87091 | 10.26219 | 34984 ft | 450 kts | 179° |
| 2026-05-04 13:29 | 55.80796 | 10.26282 | 34984 ft | 450 kts | 179° |
| 2026-05-04 13:29 | 55.74487 | 10.26345 | 34984 ft | 450 kts | 179° |
| 2026-05-04 13:30 | 55.68226 | 10.26407 | 34984 ft | 450 kts | 179° |
| 2026-05-04 13:30 | 55.61910 | 10.26470 | 34984 ft | 450 kts | 179° |
| 2026-05-04 13:31 | 55.55627 | 10.26532 | 34984 ft | 450 kts | 179° |
| 2026-05-04 13:31 | 55.49345 | 10.26594 | 34984 ft | 450 kts | 179° |
| 2026-05-04 13:32 | 55.43081 | 10.26656 | 34984 ft | 450 kts | 179° |
| 2026-05-04 13:32 | 55.36787 | 10.26718 | 34984 ft | 450 kts | 179° |
| 2026-05-04 13:33 | 55.30475 | 10.26779 | 34984 ft | 450 kts | 179° |
| 2026-05-04 13:33 | 55.24155 | 10.26841 | 34984 ft | 450 kts | 179° |
| 2026-05-04 13:34 | 55.17892 | 10.26902 | 34984 ft | 450 kts | 179° |
| 2026-05-04 13:34 | 55.11561 | 10.26963 | 34984 ft | 450 kts | 179° |
| 2026-05-04 13:35 | 55.02117 | 10.27054 | 34984 ft | 450 kts | 179° |
| 2026-05-04 13:36 | 54.95838 | 10.27113 | 34984 ft | 450 kts | 179° |
| 2026-05-04 13:36 | 54.89533 | 10.27173 | 34984 ft | 450 kts | 179° |
| 2026-05-04 13:37 | 54.83244 | 10.27232 | 34984 ft | 450 kts | 179° |
| 2026-05-04 13:37 | 54.76969 | 10.27290 | 34984 ft | 450 kts | 179° |
| 2026-05-04 13:38 | 54.70679 | 10.27342 | 34983 ft | 450 kts | 180° |
| 2026-05-04 13:38 | 54.64408 | 10.27248 | 34984 ft | 450 kts | 180° |
| 2026-05-04 13:39 | 54.58165 | 10.27125 | 34984 ft | 450 kts | 180° |
| 2026-05-04 13:39 | 54.51854 | 10.27009 | 34984 ft | 450 kts | 180° |
| 2026-05-04 13:40 | 54.45589 | 10.26899 | 34984 ft | 450 kts | 180° |
| 2026-05-04 13:40 | 54.39246 | 10.26790 | 34984 ft | 450 kts | 180° |
| 2026-05-04 13:41 | 54.32944 | 10.26682 | 34984 ft | 450 kts | 180° |
| 2026-05-04 13:41 | 54.26642 | 10.26575 | 34984 ft | 450 kts | 180° |
| 2026-05-04 13:42 | 54.17215 | 10.26415 | 34984 ft | 450 kts | 180° |
| 2026-05-04 13:42 | 54.10921 | 10.26309 | 34984 ft | 450 kts | 180° |
| 2026-05-04 13:43 | 54.04581 | 10.26203 | 34984 ft | 450 kts | 180° |
| 2026-05-04 13:43 | 53.98267 | 10.26097 | 34984 ft | 450 kts | 180° |
| 2026-05-04 13:44 | 53.91940 | 10.25991 | 34984 ft | 450 kts | 180° |
| 2026-05-04 13:44 | 53.85594 | 10.25886 | 34984 ft | 450 kts | 180° |
| 2026-05-04 13:45 | 53.79282 | 10.25781 | 34984 ft | 450 kts | 180° |
| 2026-05-04 13:45 | 53.72980 | 10.25676 | 34984 ft | 450 kts | 180° |
| 2026-05-04 13:46 | 53.66671 | 10.25572 | 34984 ft | 450 kts | 180° |
| 2026-05-04 13:46 | 53.60348 | 10.25468 | 34984 ft | 450 kts | 180° |
| 2026-05-04 13:47 | 53.54017 | 10.25364 | 34984 ft | 450 kts | 180° |
| 2026-05-04 13:47 | 53.47678 | 10.25261 | 34984 ft | 450 kts | 180° |
| 2026-05-04 13:48 | 53.41456 | 10.25159 | 34984 ft | 450 kts | 180° |
| 2026-05-04 13:48 | 53.35128 | 10.25056 | 34984 ft | 450 kts | 180° |
| 2026-05-04 13:49 | 53.28749 | 10.24953 | 34984 ft | 450 kts | 180° |
| 2026-05-04 13:49 | 53.22407 | 10.24851 | 34984 ft | 450 kts | 180° |
| 2026-05-04 13:50 | 53.16081 | 10.24749 | 34984 ft | 450 kts | 180° |
| 2026-05-04 13:50 | 53.09717 | 10.24647 | 34984 ft | 450 kts | 180° |
| 2026-05-04 13:51 | 53.03367 | 10.24545 | 34984 ft | 450 kts | 180° |
| 2026-05-04 13:51 | 52.97092 | 10.24445 | 34984 ft | 450 kts | 180° |
| 2026-05-04 13:52 | 52.87633 | 10.24295 | 34984 ft | 450 kts | 180° |
| 2026-05-04 13:53 | 52.81277 | 10.24193 | 34984 ft | 450 kts | 180° |
| 2026-05-04 13:53 | 52.74978 | 10.24094 | 34984 ft | 450 kts | 180° |
| 2026-05-04 13:54 | 52.65483 | 10.23944 | 34984 ft | 450 kts | 180° |
| 2026-05-04 13:55 | 52.56039 | 10.23796 | 34984 ft | 450 kts | 180° |
| 2026-05-04 13:55 | 52.46636 | 10.23649 | 34984 ft | 450 kts | 180° |
| 2026-05-04 13:56 | 52.40348 | 10.23551 | 34984 ft | 450 kts | 180° |
| 2026-05-04 13:57 | 52.30928 | 10.23405 | 34984 ft | 450 kts | 180° |
| 2026-05-04 13:58 | 52.18368 | 10.23212 | 34984 ft | 450 kts | 180° |
| 2026-05-04 13:58 | 52.08846 | 10.23066 | 34984 ft | 450 kts | 180° |
| 2026-05-04 13:59 | 52.02473 | 10.22968 | 34984 ft | 450 kts | 180° |
| 2026-05-04 14:00 | 51.92903 | 10.22822 | 34984 ft | 450 kts | 180° |
| 2026-05-04 14:00 | 51.83333 | 10.22677 | 34503 ft | 450 kts | 180° |
| 2026-05-04 14:01 | 51.80104 | 10.22628 | 33959 ft | 448 kts | 180° |
| 2026-05-04 14:01 | 51.76967 | 10.22580 | 33328 ft | 448 kts | 180° |
| 2026-05-04 14:01 | 51.70548 | 10.22483 | 31921 ft | 450 kts | 180° |
| 2026-05-04 14:02 | 51.67386 | 10.22436 | 31199 ft | 452 kts | 180° |
| 2026-05-04 14:02 | 51.64153 | 10.22387 | 30454 ft | 454 kts | 180° |
| 2026-05-04 14:02 | 51.60940 | 10.22339 | 29701 ft | 455 kts | 180° |
| 2026-05-04 14:02 | 51.57681 | 10.22290 | 28922 ft | 457 kts | 180° |
| 2026-05-04 14:03 | 51.54414 | 10.22241 | 28326 ft | 453 kts | 180° |
| 2026-05-04 14:03 | 51.51195 | 10.22193 | 27823 ft | 448 kts | 180° |
| 2026-05-04 14:03 | 51.47982 | 10.22144 | 27308 ft | 443 kts | 180° |
| 2026-05-04 14:03 | 51.44830 | 10.22097 | 26799 ft | 439 kts | 180° |
| 2026-05-04 14:04 | 51.38561 | 10.21821 | 25887 ft | 429 kts | 190° |
| 2026-05-04 14:04 | 51.35650 | 10.20287 | 25631 ft | 427 kts | 204° |
| 2026-05-04 14:04 | 51.32859 | 10.18209 | 25372 ft | 426 kts | 205° |
| 2026-05-04 14:05 | 51.27372 | 10.14035 | 24856 ft | 422 kts | 205° |
| 2026-05-04 14:05 | 51.24603 | 10.11996 | 24595 ft | 421 kts | 204° |
| 2026-05-04 14:05 | 51.21870 | 10.10017 | 24337 ft | 419 kts | 204° |
| 2026-05-04 14:06 | 51.19114 | 10.08043 | 24077 ft | 417 kts | 204° |
| 2026-05-04 14:06 | 51.16806 | 10.06401 | 23853 ft | 416 kts | 204° |
| 2026-05-04 14:06 | 51.15269 | 10.05336 | 23756 ft | 411 kts | 209° |
| 2026-05-04 14:06 | 51.12648 | 10.03559 | 23526 ft | 393 kts | 211° |
| 2026-05-04 14:07 | 51.10095 | 10.01755 | 23126 ft | 385 kts | 211° |
| 2026-05-04 14:07 | 51.07594 | 9.99973 | 22713 ft | 378 kts | 211° |
| 2026-05-04 14:07 | 51.05126 | 9.98219 | 22293 ft | 374 kts | 211° |
| 2026-05-04 14:07 | 51.02693 | 9.96497 | 21876 ft | 369 kts | 211° |
| 2026-05-04 14:08 | 51.00290 | 9.94803 | 21467 ft | 365 kts | 211° |
| 2026-05-04 14:08 | 50.97942 | 9.93153 | 21068 ft | 361 kts | 211° |
| 2026-05-04 14:08 | 50.95588 | 9.91502 | 20673 ft | 357 kts | 211° |
| 2026-05-04 14:08 | 50.93299 | 9.89899 | 20290 ft | 353 kts | 210° |
| 2026-05-04 14:09 | 50.88750 | 9.86718 | 19536 ft | 353 kts | 210° |
| 2026-05-04 14:09 | 50.86526 | 9.85162 | 19163 ft | 357 kts | 210° |
| 2026-05-04 14:10 | 50.81821 | 9.81890 | 18249 ft | 352 kts | 209° |
| 2026-05-04 14:10 | 50.79499 | 9.80278 | 17766 ft | 351 kts | 209° |
| 2026-05-04 14:10 | 50.77152 | 9.78650 | 17272 ft | 349 kts | 209° |
| 2026-05-04 14:10 | 50.74898 | 9.77088 | 16793 ft | 348 kts | 208° |
| 2026-05-04 14:11 | 50.72590 | 9.75490 | 16303 ft | 347 kts | 208° |
| 2026-05-04 14:11 | 50.68069 | 9.72365 | 15334 ft | 344 kts | 208° |
| 2026-05-04 14:11 | 50.65844 | 9.70829 | 14856 ft | 342 kts | 208° |
| 2026-05-04 14:12 | 50.63644 | 9.69313 | 14384 ft | 341 kts | 207° |
| 2026-05-04 14:12 | 50.61460 | 9.67809 | 13913 ft | 340 kts | 207° |
| 2026-05-04 14:12 | 50.57108 | 9.64817 | 12976 ft | 337 kts | 207° |
| 2026-05-04 14:13 | 50.54932 | 9.63321 | 12509 ft | 335 kts | 207° |
| 2026-05-04 14:13 | 50.52835 | 9.61489 | 12150 ft | 332 kts | 223° |
| 2026-05-04 14:13 | 50.51179 | 9.58845 | 11905 ft | 331 kts | 230° |
| 2026-05-04 14:13 | 50.49594 | 9.56033 | 11645 ft | 331 kts | 230° |
| 2026-05-04 14:14 | 50.48036 | 9.53282 | 11389 ft | 330 kts | 230° |
| 2026-05-04 14:14 | 50.44833 | 9.47758 | 10965 ft | 327 kts | 229° |
| 2026-05-04 14:14 | 50.43219 | 9.45022 | 10893 ft | 329 kts | 229° |
| 2026-05-04 14:15 | 50.40049 | 9.39687 | 10233 ft | 313 kts | 228° |
| 2026-05-04 14:15 | 50.37152 | 9.34858 | 10042 ft | 279 kts | 227° |
| 2026-05-04 14:16 | 50.34543 | 9.30516 | 9521 ft | 268 kts | 227° |
| 2026-05-04 14:16 | 50.33247 | 9.28356 | 9135 ft | 267 kts | 227° |
| 2026-05-04 14:17 | 50.30631 | 9.24007 | 8393 ft | 264 kts | 227° |
| 2026-05-04 14:17 | 50.29348 | 9.21883 | 8033 ft | 263 kts | 227° |
| 2026-05-04 14:17 | 50.26806 | 9.17667 | 7323 ft | 259 kts | 226° |
| 2026-05-04 14:18 | 50.25562 | 9.15609 | 7019 ft | 259 kts | 226° |
| 2026-05-04 14:18 | 50.22996 | 9.11372 | 6884 ft | 259 kts | 227° |
| 2026-05-04 14:19 | 50.20446 | 9.07154 | 5942 ft | 260 kts | 226° |
| 2026-05-04 14:19 | 50.19178 | 9.05062 | 5480 ft | 259 kts | 225° |
| 2026-05-04 14:19 | 50.17898 | 9.02960 | 4987 ft | 260 kts | 226° |
| 2026-05-04 14:19 | 50.16600 | 9.00827 | 4572 ft | 260 kts | 225° |
| 2026-05-04 14:20 | 50.15351 | 8.98784 | 4315 ft | 254 kts | 226° |
| 2026-05-04 14:20 | 50.14127 | 8.96734 | 4086 ft | 247 kts | 227° |
| 2026-05-04 14:20 | 50.12992 | 8.94673 | 4004 ft | 233 kts | 232° |
| 2026-05-04 14:21 | 50.11481 | 8.90245 | 3990 ft | 226 kts | 250° |
| 2026-05-04 14:21 | 50.10966 | 8.87829 | 3982 ft | 218 kts | 250° |
| 2026-05-04 14:21 | 50.10481 | 8.85593 | 3958 ft | 205 kts | 249° |
| 2026-05-04 14:21 | 50.09986 | 8.83441 | 3725 ft | 204 kts | 248° |
| 2026-05-04 14:22 | 50.09485 | 8.81352 | 3417 ft | 198 kts | 248° |
| 2026-05-04 14:22 | 50.08994 | 8.79336 | 3126 ft | 192 kts | 248° |
| 2026-05-04 14:22 | 50.08515 | 8.77371 | 2847 ft | 185 kts | 248° |
| 2026-05-04 14:22 | 50.08050 | 8.75458 | 2584 ft | 178 kts | 247° |
| 2026-05-04 14:23 | 50.07213 | 8.71997 | 2155 ft | 161 kts | 247° |
| 2026-05-04 14:23 | 50.06813 | 8.70341 | 1945 ft | 160 kts | 247° |
| 2026-05-04 14:23 | 50.06423 | 8.68725 | 1738 ft | 150 kts | 248° |
| 2026-05-04 14:24 | 50.06051 | 8.67180 | 1525 ft | 145 kts | 248° |
| 2026-05-04 14:24 | 50.05687 | 8.65670 | 1328 ft | 144 kts | 248° |
| 2026-05-04 14:24 | 50.05328 | 8.64168 | 1130 ft | 144 kts | 248° |
| 2026-05-04 14:24 | 50.04959 | 8.62635 | 918 ft | 143 kts | 247° |
| 2026-05-04 14:25 | 50.04598 | 8.61136 | 725 ft | 143 kts | 248° |
| 2026-05-04 14:25 | 50.03889 | 8.58155 | 371 ft | 136 kts | 248° |
| 2026-05-04 14:25 | 50.03588 | 8.56904 | 342 ft | 95 kts | 250° |
| 2026-05-04 14:26 | 50.03409 | 8.56157 | 338 ft | 52 kts | 250° |
| 2026-05-04 14:26 | 50.03306 | 8.55721 | 335 ft | 33 kts | 261° |
| 2026-05-04 14:26 | 50.03321 | 8.55415 | 333 ft | 19 kts | 280° |
| 2026-05-04 14:26 | 50.03336 | 8.55282 | 334 ft | 7 kts | 280° |
| 2026-05-04 14:27 | 50.03346 | 8.55193 | 334 ft | 9 kts | 280° |
| 2026-05-04 14:27 | 50.03357 | 8.55092 | 334 ft | 10 kts | 279° |
| 2026-05-04 14:27 | 50.03366 | 8.54975 | 334 ft | 12 kts | 267° |
| 2026-05-04 14:27 | 50.03337 | 8.54827 | 334 ft | 14 kts | 250° |
| 2026-05-04 14:28 | 50.03301 | 8.54674 | 333 ft | 15 kts | 250° |
| 2026-05-04 14:28 | 50.03272 | 8.54544 | 330 ft | 11 kts | 265° |
| 2026-05-04 14:28 | 50.03306 | 8.54486 | 330 ft | 3 kts | 339° |
| 2026-05-04 14:28 | 50.03335 | 8.54468 | 330 ft | 7 kts | 338° |
| 2026-05-04 14:29 | 50.03513 | 8.54362 | 334 ft | 10 kts | 340° |
| 2026-05-04 14:29 | 50.03624 | 8.54309 | 336 ft | 10 kts | 4° |
| 2026-05-04 14:30 | 50.03682 | 8.54425 | 337 ft | 17 kts | 70° |
| 2026-05-04 14:30 | 50.03730 | 8.54630 | 338 ft | 19 kts | 70° |
| 2026-05-04 14:30 | 50.03826 | 8.55031 | 344 ft | 18 kts | 70° |
| 2026-05-04 14:31 | 50.03870 | 8.55214 | 347 ft | 16 kts | 70° |
| 2026-05-04 14:31 | 50.03970 | 8.55630 | 349 ft | 21 kts | 69° |
| 2026-05-04 14:32 | 50.04082 | 8.56100 | 352 ft | 16 kts | 70° |
| 2026-05-04 14:32 | 50.04119 | 8.56250 | 355 ft | 13 kts | 60° |
| 2026-05-04 14:32 | 50.04188 | 8.56269 | 357 ft | 8 kts | 340° |
| 2026-05-04 14:32 | 50.04213 | 8.56255 | 357 ft | 0 kts | 341° |
| 2026-05-04 14:37 | 50.04214 | 8.56254 | 357 ft | 1 kts | 341° |
| 2026-05-04 14:37 | 50.04252 | 8.56234 | 358 ft | 9 kts | 339° |
| 2026-05-04 14:37 | 50.04293 | 8.56121 | 359 ft | 15 kts | 292° |
| 2026-05-04 14:37 | 50.04379 | 8.56034 | 361 ft | 12 kts | 340° |
| 2026-05-04 14:38 | 50.04445 | 8.56092 | 362 ft | 12 kts | 72° |
| 2026-05-04 14:38 | 50.04472 | 8.56207 | 362 ft | 10 kts | 69° |
| 2026-05-04 14:38 | 50.04472 | 8.56247 | 362 ft | 0 kts | 154° |
| 2026-05-04 14:38 | 50.04451 | 8.56262 | 362 ft | 4 kts | 162° |
| 2026-05-04 14:39 | 50.04422 | 8.56275 | 361 ft | 2 kts | 165° |